createdAt,value
2018-07-30T00:00:06.880Z,0
2018-07-30T00:01:09.226Z,0
2018-07-30T00:02:11.562Z,0
2018-07-30T00:03:13.911Z,0
2018-07-30T00:04:15.953Z,0
2018-07-30T00:05:18.031Z,0
2018-07-30T00:06:20.491Z,0
2018-07-30T00:07:22.531Z,0
2018-07-30T00:08:24.577Z,0
2018-07-30T00:09:26.627Z,0
2018-07-30T00:10:28.665Z,0
2018-07-30T00:11:30.716Z,0
2018-07-30T00:12:32.765Z,0
2018-07-30T00:13:35.198Z,0
2018-07-30T00:14:37.235Z,0
2018-07-30T00:15:39.286Z,0
2018-07-30T00:16:41.326Z,0
2018-07-30T00:17:43.655Z,0
2018-07-30T00:18:45.711Z,0
2018-07-30T00:19:47.747Z,0
2018-07-30T00:20:49.799Z,0
2018-07-30T00:21:51.840Z,0
2018-07-30T00:22:54.497Z,0
2018-07-30T00:23:56.827Z,0
2018-07-30T00:24:59.153Z,0
2018-07-30T00:26:01.494Z,0
2018-07-30T00:27:03.830Z,0
2018-07-30T00:28:05.887Z,0
2018-07-30T00:29:08.220Z,0
2018-07-30T00:30:10.262Z,0
2018-07-30T00:31:12.608Z,0
2018-07-30T00:32:14.655Z,0
2018-07-30T00:33:16.702Z,0
2018-07-30T00:34:18.751Z,0
2018-07-30T00:35:20.804Z,0
2018-07-30T00:36:23.229Z,0
2018-07-30T00:37:25.561Z,0
2018-07-30T00:38:27.613Z,0
2018-07-30T00:39:29.654Z,0
2018-07-30T00:40:31.703Z,0
2018-07-30T00:41:33.750Z,0
2018-07-30T00:42:36.185Z,0
2018-07-30T00:43:38.237Z,0
2018-07-30T00:44:40.282Z,0
2018-07-30T00:45:42.321Z,0
2018-07-30T00:46:44.364Z,0
2018-07-30T00:47:47.006Z,0
2018-07-30T00:48:49.051Z,0
2018-07-30T00:49:51.095Z,0
2018-07-30T00:50:53.147Z,0
2018-07-30T00:51:55.179Z,0
2018-07-30T00:52:57.234Z,0
2018-07-30T00:53:59.275Z,0
2018-07-30T00:55:01.358Z,0
2018-07-30T00:56:03.768Z,0
2018-07-30T00:57:05.816Z,0
2018-07-30T00:58:07.867Z,0
2018-07-30T00:59:09.915Z,0
2018-07-30T01:00:11.951Z,0
2018-07-30T01:01:14.398Z,0
2018-07-30T01:02:16.441Z,0
2018-07-30T01:03:18.483Z,0
2018-07-30T01:04:20.535Z,0
2018-07-30T01:05:22.573Z,0
2018-07-30T01:06:24.619Z,0
2018-07-30T01:07:26.779Z,0
2018-07-30T01:08:28.833Z,0
2018-07-30T01:09:30.867Z,0
2018-07-30T01:10:32.915Z,0
2018-07-30T01:11:34.966Z,0
2018-07-30T01:12:37.002Z,0
2018-07-30T01:13:39.052Z,0
2018-07-30T01:14:41.097Z,0
2018-07-30T01:15:43.137Z,0
2018-07-30T01:16:45.196Z,0
2018-07-30T01:17:47.237Z,0
2018-07-30T01:18:49.281Z,0
2018-07-30T01:19:51.320Z,0
2018-07-30T01:20:53.375Z,0
2018-07-30T01:21:55.416Z,0
2018-07-30T01:22:57.473Z,0
2018-07-30T01:23:59.518Z,0
2018-07-30T01:25:01.558Z,0
2018-07-30T01:26:03.611Z,0
2018-07-30T01:27:05.652Z,0
2018-07-30T01:28:07.701Z,0
2018-07-30T01:29:09.737Z,0
2018-07-30T01:30:11.787Z,0
2018-07-30T01:31:13.831Z,0
2018-07-30T01:32:15.873Z,0
2018-07-30T01:33:17.928Z,0
2018-07-30T01:34:19.970Z,0
2018-07-30T01:35:22.013Z,0
2018-07-30T01:36:24.058Z,0
2018-07-30T01:37:26.100Z,0
2018-07-30T01:38:28.150Z,0
2018-07-30T01:39:30.196Z,0
2018-07-30T01:40:32.244Z,0
2018-07-30T01:41:34.293Z,0
2018-07-30T01:42:36.324Z,0
2018-07-30T01:43:38.679Z,0
2018-07-30T01:44:40.729Z,0
2018-07-30T01:45:42.763Z,0
2018-07-30T01:46:44.813Z,0
2018-07-30T01:47:46.860Z,0
2018-07-30T01:48:48.902Z,0
2018-07-30T01:49:50.960Z,0
2018-07-30T01:50:53.014Z,0
2018-07-30T01:51:55.054Z,0
2018-07-30T01:52:57.096Z,0
2018-07-30T01:53:59.149Z,0
2018-07-30T01:55:01.497Z,0
2018-07-30T01:56:03.547Z,0
2018-07-30T01:57:05.596Z,0
2018-07-30T01:58:07.632Z,0
2018-07-30T01:59:09.995Z,0
2018-07-30T02:00:12.035Z,0
2018-07-30T02:01:14.082Z,0
2018-07-30T02:02:16.120Z,0
2018-07-30T02:03:18.169Z,0
2018-07-30T02:04:20.601Z,0
2018-07-30T02:05:22.642Z,0
2018-07-30T02:06:25.039Z,0
2018-07-30T02:07:27.080Z,0
2018-07-30T02:08:29.799Z,0
2018-07-30T02:09:31.849Z,0
2018-07-30T02:10:33.896Z,0
2018-07-30T02:11:35.941Z,0
2018-07-30T02:12:37.988Z,0
2018-07-30T02:13:40.039Z,0
2018-07-30T02:14:42.089Z,0
2018-07-30T02:15:44.125Z,0
2018-07-30T02:16:46.178Z,0
2018-07-30T02:17:48.226Z,0
2018-07-30T02:18:50.262Z,0
2018-07-30T02:19:52.698Z,0
2018-07-30T02:20:54.741Z,0
2018-07-30T02:21:56.779Z,0
2018-07-30T02:22:59.123Z,0
2018-07-30T02:24:01.748Z,0
2018-07-30T02:25:03.786Z,0
2018-07-30T02:26:05.825Z,0
2018-07-30T02:27:07.885Z,0
2018-07-30T02:28:09.925Z,0
2018-07-30T02:29:11.974Z,0
2018-07-30T02:30:14.026Z,0
2018-07-30T02:31:16.056Z,0
2018-07-30T02:32:18.117Z,0
2018-07-30T02:33:20.160Z,0
2018-07-30T02:34:22.602Z,0
2018-07-30T02:35:24.638Z,0
2018-07-30T02:36:26.689Z,0
2018-07-30T02:37:29.335Z,0
2018-07-30T02:38:31.681Z,0
2018-07-30T02:39:34.026Z,0
2018-07-30T02:40:36.064Z,0
2018-07-30T02:41:38.116Z,0
2018-07-30T02:42:40.562Z,0
2018-07-30T02:43:42.894Z,0
2018-07-30T02:44:45.232Z,0
2018-07-30T02:45:47.278Z,4
2018-07-30T02:46:49.316Z,4
2018-07-30T02:47:51.962Z,4
2018-07-30T02:48:54.406Z,0
2018-07-30T02:49:56.743Z,4
2018-07-30T02:50:58.781Z,4
2018-07-30T02:52:00.835Z,4
2018-07-30T02:53:03.187Z,4
2018-07-30T02:54:05.519Z,8
2018-07-30T02:55:07.569Z,8
2018-07-30T02:56:09.652Z,8
2018-07-30T02:57:11.955Z,8
2018-07-30T02:58:14.404Z,12
2018-07-30T02:59:16.460Z,12
2018-07-30T03:00:18.798Z,16
2018-07-30T03:01:21.128Z,16
2018-07-30T03:02:23.170Z,20
2018-07-30T03:03:25.207Z,20
2018-07-30T03:04:27.267Z,28
2018-07-30T03:05:29.306Z,28
2018-07-30T03:06:31.355Z,32
2018-07-30T03:07:33.392Z,36
2018-07-30T03:08:35.447Z,44
2018-07-30T03:09:37.484Z,48
2018-07-30T03:10:39.834Z,56
2018-07-30T03:11:42.171Z,60
2018-07-30T03:12:44.196Z,68
2018-07-30T03:13:46.536Z,76
2018-07-30T03:14:48.573Z,84
2018-07-30T03:15:50.916Z,96
2018-07-30T03:16:52.959Z,104
2018-07-30T03:17:55.009Z,116
2018-07-30T03:18:57.052Z,132
2018-07-30T03:19:59.104Z,144
2018-07-30T03:21:01.159Z,160
2018-07-30T03:22:03.194Z,168
2018-07-30T03:23:05.245Z,184
2018-07-30T03:24:07.582Z,196
2018-07-30T03:25:09.617Z,208
2018-07-30T03:26:11.663Z,220
2018-07-30T03:27:13.707Z,236
2018-07-30T03:28:15.757Z,252
2018-07-30T03:29:18.096Z,268
2018-07-30T03:30:20.145Z,288
2018-07-30T03:31:22.488Z,308
2018-07-30T03:32:25.134Z,328
2018-07-30T03:33:27.168Z,352
2018-07-30T03:34:29.214Z,372
2018-07-30T03:35:31.560Z,392
2018-07-30T03:36:33.600Z,416
2018-07-30T03:37:35.653Z,436
2018-07-30T03:38:37.970Z,460
2018-07-30T03:39:40.017Z,484
2018-07-30T03:40:42.056Z,512
2018-07-30T03:41:44.107Z,540
2018-07-30T03:42:46.148Z,572
2018-07-30T03:43:48.195Z,608
2018-07-30T03:44:50.247Z,640
2018-07-30T03:45:52.569Z,680
2018-07-30T03:46:55.002Z,728
2018-07-30T03:47:57.379Z,768
2018-07-30T03:48:59.730Z,824
2018-07-30T03:50:01.769Z,900
2018-07-30T03:51:03.816Z,992
2018-07-30T03:52:05.859Z,1072
2018-07-30T03:53:07.908Z,1124
2018-07-30T03:54:09.957Z,1152
2018-07-30T03:55:12.275Z,1188
2018-07-30T03:56:14.324Z,1200
2018-07-30T03:57:16.371Z,1220
2018-07-30T03:58:19.025Z,1228
2018-07-30T03:59:21.066Z,1232
2018-07-30T04:00:23.273Z,1248
2018-07-30T04:01:25.532Z,1252
2018-07-30T04:02:27.587Z,1272
2018-07-30T04:03:29.936Z,1300
2018-07-30T04:04:32.262Z,1332
2018-07-30T04:05:34.304Z,1356
2018-07-30T04:06:36.627Z,1392
2018-07-30T04:07:38.674Z,1424
2018-07-30T04:08:41.010Z,1456
2018-07-30T04:09:43.327Z,1488
2018-07-30T04:10:46.054Z,1528
2018-07-30T04:11:48.092Z,1564
2018-07-30T04:12:50.192Z,1612
2018-07-30T04:13:52.606Z,1644
2018-07-30T04:14:54.662Z,1696
2018-07-30T04:15:56.702Z,1752
2018-07-30T04:16:58.743Z,1824
2018-07-30T04:18:01.100Z,1884
2018-07-30T04:19:03.129Z,1944
2018-07-30T04:20:05.188Z,2008
2018-07-30T04:21:07.227Z,2068
2018-07-30T04:22:09.383Z,2148
2018-07-30T04:23:11.312Z,2228
2018-07-30T04:24:13.661Z,2316
2018-07-30T04:25:15.714Z,2424
2018-07-30T04:26:18.051Z,2548
2018-07-30T04:27:20.098Z,2712
2018-07-30T04:28:22.133Z,2888
2018-07-30T04:29:24.182Z,3060
2018-07-30T04:30:26.232Z,3140
2018-07-30T04:31:28.263Z,3196
2018-07-30T04:32:30.313Z,3244
2018-07-30T04:33:32.351Z,3240
2018-07-30T04:34:34.390Z,3228
2018-07-30T04:35:36.448Z,3220
2018-07-30T04:36:38.880Z,3272
2018-07-30T04:37:40.919Z,3368
2018-07-30T04:38:42.960Z,3456
2018-07-30T04:39:45.011Z,3544
2018-07-30T04:40:47.050Z,3616
2018-07-30T04:41:49.101Z,3688
2018-07-30T04:42:51.152Z,3796
2018-07-30T04:43:53.286Z,3808
2018-07-30T04:44:55.634Z,3824
2018-07-30T04:45:57.685Z,3840
2018-07-30T04:46:59.723Z,3856
2018-07-30T04:48:01.779Z,3872
2018-07-30T04:49:03.829Z,3908
2018-07-30T04:50:06.151Z,3924
2018-07-30T04:51:08.545Z,3952
2018-07-30T04:52:10.969Z,3912
2018-07-30T04:53:13.025Z,3804
2018-07-30T04:54:15.061Z,3700
2018-07-30T04:55:17.097Z,3624
2018-07-30T04:56:19.528Z,3604
2018-07-30T04:57:21.875Z,3640
2018-07-30T04:58:23.922Z,3660
2018-07-30T04:59:25.974Z,3708
2018-07-30T05:00:28.306Z,3848
2018-07-30T05:01:30.735Z,3940
2018-07-30T05:02:33.639Z,3844
2018-07-30T05:03:36.090Z,3716
2018-07-30T05:04:38.510Z,3712
2018-07-30T05:05:40.563Z,3808
2018-07-30T05:06:42.606Z,3796
2018-07-30T05:07:44.647Z,3812
2018-07-30T05:08:46.708Z,3844
2018-07-30T05:09:49.033Z,3896
2018-07-30T05:10:51.070Z,3964
2018-07-30T05:11:53.108Z,4072
2018-07-30T05:12:55.163Z,4328
2018-07-30T05:13:57.200Z,4540
2018-07-30T05:14:59.532Z,4772
2018-07-30T05:16:01.902Z,4944
2018-07-30T05:17:03.933Z,5184
2018-07-30T05:18:05.988Z,5588
2018-07-30T05:19:08.027Z,5736
2018-07-30T05:20:10.077Z,5772
2018-07-30T05:21:12.414Z,5764
2018-07-30T05:22:14.759Z,5576
2018-07-30T05:23:17.190Z,5392
2018-07-30T05:24:19.230Z,5268
2018-07-30T05:25:21.758Z,5200
2018-07-30T05:26:23.703Z,5048
2018-07-30T05:27:26.037Z,4796
2018-07-30T05:28:28.371Z,4628
2018-07-30T05:29:30.422Z,4404
2018-07-30T05:30:32.459Z,4224
2018-07-30T05:31:34.509Z,4056
2018-07-30T05:32:36.543Z,4032
2018-07-30T05:33:38.870Z,4020
2018-07-30T05:34:40.929Z,4060
2018-07-30T05:35:42.968Z,4080
2018-07-30T05:36:45.008Z,4184
2018-07-30T05:37:47.067Z,4320
2018-07-30T05:38:49.103Z,4516
2018-07-30T05:39:51.147Z,4804
2018-07-30T05:40:53.591Z,5116
2018-07-30T05:41:55.625Z,5608
2018-07-30T05:42:57.678Z,5808
2018-07-30T05:44:00.297Z,6104
2018-07-30T05:45:02.345Z,6488
2018-07-30T05:46:04.682Z,6924
2018-07-30T05:47:06.734Z,7376
2018-07-30T05:48:08.774Z,7812
2018-07-30T05:49:10.812Z,8280
2018-07-30T05:50:13.152Z,8740
2018-07-30T05:51:15.189Z,9168
2018-07-30T05:52:17.238Z,9468
2018-07-30T05:53:19.280Z,9840
2018-07-30T05:54:21.336Z,10252
2018-07-30T05:55:23.377Z,10712
2018-07-30T05:56:25.725Z,11252
2018-07-30T05:57:27.770Z,11764
2018-07-30T05:58:30.109Z,12248
2018-07-30T05:59:32.577Z,12692
2018-07-30T06:00:34.682Z,13132
2018-07-30T06:01:36.733Z,13468
2018-07-30T06:02:38.788Z,13740
2018-07-30T06:03:40.830Z,13728
2018-07-30T06:04:42.874Z,13604
2018-07-30T06:05:45.198Z,13404
2018-07-30T06:06:47.243Z,13080
2018-07-30T06:07:49.588Z,12784
2018-07-30T06:08:52.016Z,12548
2018-07-30T06:09:54.056Z,12404
2018-07-30T06:10:56.115Z,12260
2018-07-30T06:11:58.161Z,12252
2018-07-30T06:13:00.492Z,12400
2018-07-30T06:14:02.541Z,12644
2018-07-30T06:15:04.578Z,12532
2018-07-30T06:16:06.939Z,12216
2018-07-30T06:17:08.990Z,11856
2018-07-30T06:18:11.329Z,11492
2018-07-30T06:19:13.646Z,11644
2018-07-30T06:20:15.703Z,12048
2018-07-30T06:21:18.034Z,12092
2018-07-30T06:22:20.073Z,12312
2018-07-30T06:23:22.134Z,12268
2018-07-30T06:24:24.170Z,12404
2018-07-30T06:25:26.222Z,13008
2018-07-30T06:26:28.304Z,12988
2018-07-30T06:27:30.970Z,13424
2018-07-30T06:28:33.347Z,14044
2018-07-30T06:29:35.686Z,14820
2018-07-30T06:30:37.741Z,15500
2018-07-30T06:31:40.065Z,16020
2018-07-30T06:32:42.121Z,16192
2018-07-30T06:33:44.164Z,16132
2018-07-30T06:34:46.208Z,16044
2018-07-30T06:35:48.251Z,14840
2018-07-30T06:36:50.594Z,14036
2018-07-30T06:37:52.633Z,13488
2018-07-30T06:38:54.679Z,13024
2018-07-30T06:39:56.727Z,12404
2018-07-30T06:40:58.786Z,12028
2018-07-30T06:42:00.830Z,11648
2018-07-30T06:43:02.872Z,11164
2018-07-30T06:44:05.317Z,10860
2018-07-30T06:45:07.361Z,10736
2018-07-30T06:46:09.412Z,10972
2018-07-30T06:47:11.847Z,11676
2018-07-30T06:48:13.886Z,12688
2018-07-30T06:49:16.247Z,13728
2018-07-30T06:50:18.582Z,14388
2018-07-30T06:51:20.918Z,14528
2018-07-30T06:52:22.957Z,14160
2018-07-30T06:53:25.014Z,13596
2018-07-30T06:54:27.053Z,13000
2018-07-30T06:55:29.100Z,12396
2018-07-30T06:56:31.157Z,11952
2018-07-30T06:57:33.196Z,11560
2018-07-30T06:58:35.250Z,11240
2018-07-30T06:59:37.294Z,11052
2018-07-30T07:00:39.356Z,11264
2018-07-30T07:01:41.404Z,11640
2018-07-30T07:02:43.731Z,11988
2018-07-30T07:03:45.785Z,12000
2018-07-30T07:04:47.824Z,11996
2018-07-30T07:05:49.887Z,12408
2018-07-30T07:06:52.217Z,12284
2018-07-30T07:07:54.260Z,12092
2018-07-30T07:08:56.597Z,12084
2018-07-30T07:09:58.940Z,12460
2018-07-30T07:11:01.095Z,12900
2018-07-30T07:12:03.575Z,13856
2018-07-30T07:13:05.942Z,13868
2018-07-30T07:14:07.979Z,14140
2018-07-30T07:15:10.051Z,14328
2018-07-30T07:16:12.091Z,14196
2018-07-30T07:17:14.151Z,14324
2018-07-30T07:18:16.192Z,14800
2018-07-30T07:19:18.238Z,15376
2018-07-30T07:20:20.294Z,16120
2018-07-30T07:21:22.416Z,16976
2018-07-30T07:22:24.382Z,17720
2018-07-30T07:23:26.435Z,18400
2018-07-30T07:24:28.491Z,18656
2018-07-30T07:25:30.530Z,18656
2018-07-30T07:26:32.872Z,18656
2018-07-30T07:27:34.912Z,18624
2018-07-30T07:28:36.956Z,18752
2018-07-30T07:29:39.017Z,19040
2018-07-30T07:30:41.060Z,19616
2018-07-30T07:31:43.397Z,20896
2018-07-30T07:32:45.445Z,23424
2018-07-30T07:33:47.506Z,23840
2018-07-30T07:34:49.575Z,23744
2018-07-30T07:35:51.957Z,22912
2018-07-30T07:36:54.300Z,22560
2018-07-30T07:37:56.341Z,22144
2018-07-30T07:38:58.407Z,21664
2018-07-30T07:40:00.452Z,20512
2018-07-30T07:41:02.500Z,19360
2018-07-30T07:42:04.546Z,18560
2018-07-30T07:43:06.604Z,18272
2018-07-30T07:44:08.660Z,18208
2018-07-30T07:45:11.007Z,17968
2018-07-30T07:46:13.062Z,17624
2018-07-30T07:47:15.105Z,17132
2018-07-30T07:48:17.174Z,16520
2018-07-30T07:49:19.212Z,15892
2018-07-30T07:50:21.436Z,15716
2018-07-30T07:51:23.977Z,15868
2018-07-30T07:52:26.027Z,16264
2018-07-30T07:53:28.074Z,16876
2018-07-30T07:54:30.137Z,17520
2018-07-30T07:55:32.180Z,18080
2018-07-30T07:56:34.227Z,18784
2018-07-30T07:57:36.659Z,19072
2018-07-30T07:58:39.112Z,19232
2018-07-30T07:59:41.157Z,19488
2018-07-30T08:00:43.216Z,19904
2018-07-30T08:01:45.270Z,21024
2018-07-30T08:02:47.310Z,22016
2018-07-30T08:03:49.372Z,23168
2018-07-30T08:04:52.031Z,24288
2018-07-30T08:05:54.374Z,24640
2018-07-30T08:06:56.414Z,24544
2018-07-30T08:07:58.476Z,24416
2018-07-30T08:09:00.531Z,24288
2018-07-30T08:10:02.576Z,23968
2018-07-30T08:11:04.754Z,23680
2018-07-30T08:12:06.689Z,23872
2018-07-30T08:13:09.323Z,24032
2018-07-30T08:14:11.376Z,24288
2018-07-30T08:15:13.436Z,24928
2018-07-30T08:16:15.487Z,25280
2018-07-30T08:17:17.532Z,25280
2018-07-30T08:18:19.577Z,25312
2018-07-30T08:19:21.629Z,25376
2018-07-30T08:20:23.686Z,26240
2018-07-30T08:21:25.735Z,28000
2018-07-30T08:22:27.782Z,29632
2018-07-30T08:23:29.841Z,30688
2018-07-30T08:24:31.887Z,32352
2018-07-30T08:25:34.611Z,33120
2018-07-30T08:26:36.662Z,35872
2018-07-30T08:27:38.704Z,32704
2018-07-30T08:28:40.758Z,33440
2018-07-30T08:29:42.814Z,38752
2018-07-30T08:30:45.169Z,37312
2018-07-30T08:31:47.228Z,47744
2018-07-30T08:32:49.277Z,44128
2018-07-30T08:33:52.048Z,36480
2018-07-30T08:34:54.104Z,33600
2018-07-30T08:35:56.144Z,33120
2018-07-30T08:36:58.208Z,34528
2018-07-30T08:38:00.258Z,34816
2018-07-30T08:39:02.316Z,38496
2018-07-30T08:40:04.937Z,60832
2018-07-30T08:41:06.994Z,36448
2018-07-30T08:42:09.470Z,38272
2018-07-30T08:43:11.492Z,34624
2018-07-30T08:44:13.831Z,36800
2018-07-30T08:45:15.873Z,43296
2018-07-30T08:46:17.930Z,46912
2018-07-30T08:47:19.986Z,38336
2018-07-30T08:48:22.046Z,57024
2018-07-30T08:49:24.092Z,42944
2018-07-30T08:50:26.148Z,35200
2018-07-30T08:51:28.481Z,32256
2018-07-30T08:52:30.534Z,33632
2018-07-30T08:53:32.597Z,32320
2018-07-30T08:54:35.334Z,32032
2018-07-30T08:55:37.386Z,32864
2018-07-30T08:56:39.448Z,35296
2018-07-30T08:57:41.777Z,36096
2018-07-30T08:58:43.836Z,41152
2018-07-30T08:59:45.899Z,33408
2018-07-30T09:00:47.943Z,31360
2018-07-30T09:01:50.001Z,30816
2018-07-30T09:02:52.062Z,32832
2018-07-30T09:03:54.404Z,31328
2018-07-30T09:04:56.445Z,31040
2018-07-30T09:05:58.502Z,32384
2018-07-30T09:07:00.550Z,33952
2018-07-30T09:08:03.283Z,36000
2018-07-30T09:09:05.334Z,38272
2018-07-30T09:10:07.395Z,41248
2018-07-30T09:11:09.445Z,45600
2018-07-30T09:12:11.505Z,52832
2018-07-30T09:13:14.077Z,72160
2018-07-30T09:14:16.139Z,64960
2018-07-30T09:15:18.195Z,59904
2018-07-30T09:16:20.242Z,69792
2018-07-30T09:17:22.311Z,58368
2018-07-30T09:18:24.419Z,45120
2018-07-30T09:19:26.412Z,48992
2018-07-30T09:20:28.472Z,52544
2018-07-30T09:21:30.536Z,50880
2018-07-30T09:22:32.591Z,41856
2018-07-30T09:23:34.931Z,41504
2018-07-30T09:24:37.561Z,42208
2018-07-30T09:25:39.612Z,43264
2018-07-30T09:26:41.963Z,42688
2018-07-30T09:27:44.014Z,41248
2018-07-30T09:28:46.061Z,41568
2018-07-30T09:29:48.415Z,40576
2018-07-30T09:30:50.479Z,41152
2018-07-30T09:31:53.206Z,42656
2018-07-30T09:32:55.671Z,48160
2018-07-30T09:33:57.598Z,68800
2018-07-30T09:34:59.953Z,86720
2018-07-30T09:36:02.302Z,49664
2018-07-30T09:37:04.671Z,44352
2018-07-30T09:38:07.008Z,53216
2018-07-30T09:39:09.106Z,55040
2018-07-30T09:40:11.522Z,44416
2018-07-30T09:41:13.574Z,49728
2018-07-30T09:42:15.643Z,46528
2018-07-30T09:43:17.689Z,45760
2018-07-30T09:44:19.758Z,45152
2018-07-30T09:45:21.812Z,48640
2018-07-30T09:46:23.880Z,54336
2018-07-30T09:47:25.937Z,60384
2018-07-30T09:48:28.281Z,51936
2018-07-30T09:49:30.632Z,53920
2018-07-30T09:50:33.070Z,58848
2018-07-30T09:51:35.409Z,95424
2018-07-30T09:52:37.475Z,76544
2018-07-30T09:53:39.538Z,78784
2018-07-30T09:54:41.601Z,97248
2018-07-30T09:55:43.651Z,134304
2018-07-30T09:56:45.711Z,67808
2018-07-30T09:57:47.762Z,69056
2018-07-30T09:58:49.813Z,53152
2018-07-30T09:59:51.888Z,48480
2018-07-30T10:00:53.941Z,80320
2018-07-30T10:01:55.998Z,86752
2018-07-30T10:02:58.063Z,63200
2018-07-30T10:04:00.113Z,46656
2018-07-30T10:05:02.176Z,50080
2018-07-30T10:06:04.596Z,58976
2018-07-30T10:07:06.992Z,51456
2018-07-30T10:08:09.062Z,63840
2018-07-30T10:09:11.129Z,73632
2018-07-30T10:10:13.194Z,74912
2018-07-30T10:11:15.241Z,52448
2018-07-30T10:12:17.607Z,50464
2018-07-30T10:13:19.661Z,50592
2018-07-30T10:14:22.103Z,54368
2018-07-30T10:15:24.173Z,76256
2018-07-30T10:16:26.225Z,65792
2018-07-30T10:17:28.289Z,52096
2018-07-30T10:18:30.638Z,57856
2018-07-30T10:19:32.704Z,98208
2018-07-30T10:20:34.759Z,72512
2018-07-30T10:21:36.821Z,76704
2018-07-30T10:22:38.886Z,78528
2018-07-30T10:23:41.017Z,98560
2018-07-30T10:24:43.008Z,103648
2018-07-30T10:25:45.061Z,130496
2018-07-30T10:26:47.117Z,137120
2018-07-30T10:27:49.172Z,140288
2018-07-30T10:28:51.237Z,89760
2018-07-30T10:29:53.295Z,86240
2018-07-30T10:30:55.362Z,76384
2018-07-30T10:31:57.428Z,87936
2018-07-30T10:32:59.483Z,74208
2018-07-30T10:34:02.230Z,77344
2018-07-30T10:35:04.307Z,72416
2018-07-30T10:36:06.365Z,75520
2018-07-30T10:37:08.429Z,85696
2018-07-30T10:38:10.933Z,84256
2018-07-30T10:39:12.931Z,95776
2018-07-30T10:40:15.003Z,70560
2018-07-30T10:41:17.063Z,94752
2018-07-30T10:42:19.406Z,84320
2018-07-30T10:43:21.748Z,133632
2018-07-30T10:44:23.823Z,90784
2018-07-30T10:45:25.880Z,100064
2018-07-30T10:46:28.682Z,106752
2018-07-30T10:47:30.684Z,94016
2018-07-30T10:48:32.737Z,94048
2018-07-30T10:49:34.811Z,84192
2018-07-30T10:50:36.868Z,65024
2018-07-30T10:51:38.933Z,70432
2018-07-30T10:52:41.293Z,71584
2018-07-30T10:53:43.368Z,95872
2018-07-30T10:54:45.766Z,124224
2018-07-30T10:55:47.827Z,67456
2018-07-30T10:56:49.900Z,60736
2018-07-30T10:57:51.953Z,53216
2018-07-30T10:58:54.024Z,56576
2018-07-30T10:59:56.098Z,59264
2018-07-30T11:00:58.198Z,63776
2018-07-30T11:02:00.223Z,62400
2018-07-30T11:03:02.293Z,65920
2018-07-30T11:04:04.758Z,69792
2018-07-30T11:05:07.396Z,67136
2018-07-30T11:06:09.452Z,86240
2018-07-30T11:07:11.520Z,68928
2018-07-30T11:08:13.593Z,70560
2018-07-30T11:09:15.661Z,81728
2018-07-30T11:10:17.736Z,69280
2018-07-30T11:11:20.182Z,56256
2018-07-30T11:12:22.241Z,54720
2018-07-30T11:13:24.314Z,59776
2018-07-30T11:14:26.374Z,91968
2018-07-30T11:15:28.728Z,107456
2018-07-30T11:16:30.784Z,132416
2018-07-30T11:17:32.854Z,113600
2018-07-30T11:18:35.202Z,122368
2018-07-30T11:19:37.266Z,127520
2018-07-30T11:20:39.631Z,124192
2018-07-30T11:21:42.059Z,121024
2018-07-30T11:22:44.041Z,130592
2018-07-30T11:23:46.393Z,134112
2018-07-30T11:24:48.466Z,127456
2018-07-30T11:25:50.520Z,112064
2018-07-30T11:26:52.592Z,123648
2018-07-30T11:27:54.981Z,125600
2018-07-30T11:28:57.446Z,124352
2018-07-30T11:29:59.805Z,126816
2018-07-30T11:31:01.862Z,127904
2018-07-30T11:32:03.932Z,128736
2018-07-30T11:33:06.005Z,125920
2018-07-30T11:34:08.400Z,101248
2018-07-30T11:37:16.758Z,121024
2018-07-30T11:38:18.818Z,145888
2018-07-30T11:39:20.876Z,154112
2018-07-30T11:40:22.971Z,64896
2018-07-30T11:41:25.033Z,108224
2018-07-30T11:42:27.109Z,61888
2018-07-30T11:43:29.187Z,90656
2018-07-30T11:44:31.251Z,61376
2018-07-30T11:45:33.696Z,60544
2018-07-30T11:46:35.757Z,53472
2018-07-30T11:47:37.833Z,50624
2018-07-30T11:48:39.930Z,50144
2018-07-30T11:49:42.772Z,54144
2018-07-30T11:50:44.826Z,57856
2018-07-30T11:51:46.902Z,60256
2018-07-30T11:52:48.960Z,67744
2018-07-30T11:53:51.030Z,75040
2018-07-30T11:54:53.114Z,70016
2018-07-30T11:55:55.196Z,48992
2018-07-30T11:56:57.247Z,47840
2018-07-30T11:57:59.305Z,44832
2018-07-30T11:59:01.670Z,43872
2018-07-30T12:00:03.724Z,42848
2018-07-30T12:01:05.907Z,41600
2018-07-30T12:02:07.859Z,40768
2018-07-30T12:03:09.918Z,39136
2018-07-30T12:04:11.992Z,39296
2018-07-30T12:05:15.021Z,47136
2018-07-30T12:06:17.094Z,40256
2018-07-30T12:07:19.738Z,40480
2018-07-30T12:08:21.806Z,45056
2018-07-30T12:09:23.863Z,80544
2018-07-30T12:10:26.315Z,44736
2018-07-30T12:11:28.371Z,48896
2018-07-30T12:12:30.428Z,60736
2018-07-30T12:13:32.578Z,52544
2018-07-30T12:14:34.958Z,60544
2018-07-30T12:15:37.016Z,66688
2018-07-30T12:16:39.092Z,61120
2018-07-30T12:17:41.149Z,61920
2018-07-30T12:18:43.232Z,49984
2018-07-30T12:19:45.275Z,48672
2018-07-30T12:20:47.357Z,50752
2018-07-30T12:21:49.868Z,75424
2018-07-30T12:22:53.094Z,110496
2018-07-30T12:23:55.161Z,133536
2018-07-30T12:24:57.237Z,125504
2018-07-30T12:25:59.291Z,110240
2018-07-30T12:27:01.365Z,94016
2018-07-30T12:28:03.430Z,84960
2018-07-30T12:29:05.481Z,77344
2018-07-30T12:30:07.575Z,84224
2018-07-30T12:31:09.620Z,64608
2018-07-30T12:32:11.982Z,93120
2018-07-30T12:33:14.051Z,104320
2018-07-30T12:34:16.103Z,80832
2018-07-30T12:35:18.165Z,132576
2018-07-30T12:36:20.256Z,121696
2018-07-30T12:37:22.295Z,118432
2018-07-30T12:38:24.347Z,124480
2018-07-30T12:39:26.700Z,73888
2018-07-30T12:40:29.058Z,50560
2018-07-30T12:41:31.124Z,44192
2018-07-30T12:42:33.465Z,41568
2018-07-30T12:43:35.530Z,44160
2018-07-30T12:44:37.998Z,47872
2018-07-30T12:45:40.039Z,45184
2018-07-30T12:46:42.117Z,44384
2018-07-30T12:47:44.174Z,43232
2018-07-30T12:48:46.234Z,64640
2018-07-30T12:49:48.316Z,65632
2018-07-30T12:50:50.379Z,104640
2018-07-30T12:51:52.449Z,110816
2018-07-30T12:52:54.519Z,93024
2018-07-30T12:53:56.569Z,43904
2018-07-30T12:54:58.931Z,38592
2018-07-30T12:56:01.287Z,54624
2018-07-30T12:57:03.642Z,66528
2018-07-30T12:58:05.705Z,57120
2018-07-30T12:59:07.768Z,37056
2018-07-30T13:00:09.829Z,34016
2018-07-30T13:01:11.885Z,32896
2018-07-30T13:02:13.957Z,33440
2018-07-30T13:03:16.082Z,51808
2018-07-30T13:04:18.082Z,36960
2018-07-30T13:05:20.141Z,37568
2018-07-30T13:06:22.214Z,42080
2018-07-30T13:07:24.669Z,49728
2018-07-30T13:08:26.734Z,67104
2018-07-30T13:09:28.801Z,66304
2018-07-30T13:10:31.158Z,68736
2018-07-30T13:11:33.233Z,66048
2018-07-30T13:12:35.292Z,68320
2018-07-30T13:13:37.367Z,68416
2018-07-30T13:14:39.759Z,80288
2018-07-30T13:15:41.829Z,107136
2018-07-30T13:16:44.180Z,96832
2018-07-30T13:17:46.822Z,94176
2018-07-30T13:18:49.177Z,57568
2018-07-30T13:19:51.229Z,87296
2018-07-30T13:20:53.320Z,128672
2018-07-30T13:21:55.735Z,118848
2018-07-30T13:22:57.791Z,81504
2018-07-30T13:24:00.196Z,91456
2018-07-30T13:25:02.961Z,70336
2018-07-30T13:26:05.341Z,63808
2018-07-30T13:27:07.414Z,78080
2018-07-30T13:28:09.864Z,101760
2018-07-30T13:29:12.514Z,104832
2018-07-30T13:30:14.847Z,64000
2018-07-30T13:31:17.213Z,39616
2018-07-30T13:32:19.272Z,46144
2018-07-30T13:33:21.339Z,68064
2018-07-30T13:34:23.411Z,115328
2018-07-30T13:35:25.483Z,98560
2018-07-30T13:36:27.537Z,110560
2018-07-30T13:37:29.611Z,101408
2018-07-30T13:38:31.675Z,84544
2018-07-30T13:39:33.750Z,50048
2018-07-30T13:40:35.810Z,48096
2018-07-30T13:41:37.877Z,36576
2018-07-30T13:42:39.951Z,42304
2018-07-30T13:43:42.008Z,59904
2018-07-30T13:44:44.371Z,56992
2018-07-30T13:45:46.730Z,111104
2018-07-30T13:46:48.787Z,108128
2018-07-30T13:47:50.848Z,105888
2018-07-30T13:48:52.921Z,122912
2018-07-30T13:49:54.986Z,119072
2018-07-30T13:50:57.443Z,112736